Back to Top

Language: 

My Weather Underground Personal Weather Station Historical Data with Graphs...

Delerius Weather Station Historical Data
Daily Summary for March 7, 2017 Units:  Metric    English   Both
« Previous Day
Next Day »
Daily Weekly Monthly Yearly Custom
  High: Low: Average:
Temperature: 11.1 °C 3.4 °C 7.1 °C
Dew Point: 5.6 °C 1.3 °C 2.9 °C
Humidity: 92 % 54 % 76 %
Wind Speed: 22.5 km/h 0 km/h 10.1 km/h
Wind Gust: 29 km/h - -
Wind:- - WSW
Pressure: 1015.8 hPa 1008 hPa -
Precipitation: 0.25 mm    
Historical Graphs
 
 
Tabular Data for March 7, 2017
Time Temperature Dew Point Pressure Wind Wind Speed Wind Gust Humidity Rainfall Rate (Hourly) solar Conditions
00:00 4.8 °C 3 °C 1011.7 hPa WNW 12.9 km/h 14.5 km/h 88 % 0 mm 0 W/m2
00:05 4.8 °C 2.9 °C 1011.7 hPa WNW 12.9 km/h 16.1 km/h 88 % 0 mm 0 W/m2
00:15 4.7 °C 2.8 °C 1011.7 hPa West 14.5 km/h 19.3 km/h 88 % 0 mm 0 W/m2
00:20 4.7 °C 2.8 °C 1011.7 hPa NW 14.5 km/h 14.5 km/h 88 % 0 mm 0 W/m2
00:25 4.6 °C 2.8 °C 1012.1 hPa West 14.5 km/h 14.5 km/h 88 % 0 mm 0 W/m2
00:35 4.6 °C 2.6 °C 1012.1 hPa West 14.5 km/h 14.5 km/h 87 % 0 mm 0 W/m2
00:40 4.5 °C 2.5 °C 1012.1 hPa NW 14.5 km/h 14.5 km/h 87 % 0 mm 0 W/m2
00:45 4.5 °C 2.5 °C 1012.1 hPa WNW 14.5 km/h 14.5 km/h 87 % 0 mm 0 W/m2
00:55 4.4 °C 2.4 °C 1012.1 hPa West 9.7 km/h 16.1 km/h 87 % 0 mm 0 W/m2
01:00 4.4 °C 2.6 °C 1012.4 hPa NW 11.3 km/h 11.3 km/h 88 % 0 mm 0 W/m2
01:05 4.4 °C 2.6 °C 1012.4 hPa NW 12.9 km/h 19.3 km/h 88 % 0 mm 0 W/m2
01:10 4.4 °C 2.6 °C 1012.4 hPa NNW 12.9 km/h 12.9 km/h 88 % 0 mm 0 W/m2
01:15 4.4 °C 2.6 °C 1012.4 hPa WNW 14.5 km/h 14.5 km/h 88 % 0 mm 0 W/m2
01:20 4.5 °C 2.7 °C 1012.4 hPa WNW 14.5 km/h 14.5 km/h 88 % 0 mm 0 W/m2
01:30 4.6 °C 2.7 °C 1012.8 hPa WNW 11.3 km/h 11.3 km/h 88 % 0 mm 0 W/m2
01:35 4.6 °C 2.8 °C 1012.8 hPa WNW 9.7 km/h 24.1 km/h 88 % 0 mm 0 W/m2
01:40 4.6 °C 2.8 °C 1012.8 hPa NW 8 km/h 8 km/h 88 % 0 mm 0 W/m2
01:45 4.7 °C 2.8 °C 1012.8 hPa WNW 9.7 km/h 9.7 km/h 88 % 0 mm 0 W/m2
01:55 4.7 °C 2.9 °C 1012.8 hPa WNW 9.7 km/h 24.1 km/h 88 % 0 mm 0 W/m2
02:00 4.7 °C 2.9 °C 1012.8 hPa NW 8 km/h 8 km/h 88 % 0 mm 0 W/m2
02:05 4.7 °C 3.1 °C 1012.8 hPa NW 8 km/h 24.1 km/h 89 % 0 mm 0 W/m2
02:15 4.7 °C 3.1 °C 1012.4 hPa NNW 9.7 km/h 24.1 km/h 89 % 0 mm 0 W/m2
02:20 4.7 °C 3.1 °C 1012.4 hPa NW 9.7 km/h 24.1 km/h 89 % 0 mm 0 W/m2
02:25 4.7 °C 3 °C 1012.4 hPa NW 9.7 km/h 24.1 km/h 89 % 0 mm 0 W/m2
02:30 4.6 °C 2.9 °C 1012.4 hPa WNW 6.4 km/h 24.1 km/h 89 % 0 mm 0 W/m2
02:35 4.5 °C 2.8 °C 1012.4 hPa NW 4.8 km/h 24.1 km/h 89 % 0 mm 0 W/m2
02:40 4.6 °C 3.1 °C 1012.4 hPa NW 8 km/h 8 km/h 90 % 0 mm 0 W/m2
02:45 4.6 °C 3.1 °C 1012.8 hPa NW 8 km/h 24.1 km/h 90 % 0 mm 0 W/m2
02:50 4.7 °C 3.2 °C 1012.8 hPa NW 8 km/h 24.1 km/h 90 % 0 mm 0 W/m2
02:55 4.7 °C 3.2 °C 1012.8 hPa NW 9.7 km/h 24.1 km/h 90 % 0 mm 0 W/m2
03:00 4.7 °C 3.2 °C 1012.8 hPa WNW 12.9 km/h 24.1 km/h 90 % 0 mm 0 W/m2
03:10 4.7 °C 3 °C 1012.8 hPa WNW 14.5 km/h 14.5 km/h 89 % 0 mm 0 W/m2
03:20 4.6 °C 2.9 °C 1012.8 hPa WNW 12.9 km/h 24.1 km/h 89 % 0 mm 0 W/m2
03:25 4.6 °C 2.9 °C 1012.8 hPa West 12.9 km/h 24.1 km/h 89 % 0 mm 0 W/m2
03:30 4.6 °C 2.9 °C 1013.1 hPa WNW 16.1 km/h 16.1 km/h 89 % 0 mm 0 W/m2
03:35 4.6 °C 2.9 °C 1013.1 hPa WNW 16.1 km/h 24.1 km/h 89 % 0 mm 0 W/m2
03:45 4.6 °C 2.9 °C 1013.1 hPa West 12.9 km/h 17.7 km/h 89 % 0 mm 0 W/m2
03:50 4.6 °C 2.9 °C 1013.1 hPa WNW 14.5 km/h 24.1 km/h 89 % 0 mm 0 W/m2
03:55 4.5 °C 2.8 °C 1013.4 hPa WNW 12.9 km/h 24.1 km/h 89 % 0 mm 0 W/m2
04:00 4.4 °C 2.8 °C 1013.4 hPa WNW 12.9 km/h 24.1 km/h 89 % 0 mm 0 W/m2
04:05 4.4 °C 2.7 °C 1013.4 hPa WNW 11.3 km/h 24.1 km/h 89 % 0 mm 0 W/m2
04:15 4.3 °C 2.6 °C 1013.4 hPa WNW 12.9 km/h 12.9 km/h 89 % 0 mm 0 W/m2
04:20 4.3 °C 2.6 °C 1013.4 hPa WNW 11.3 km/h 24.1 km/h 89 % 0 mm 0 W/m2
04:25 4.2 °C 2.6 °C 1013.8 hPa NW 11.3 km/h 24.1 km/h 89 % 0 mm 0 W/m2
04:35 4.2 °C 2.6 °C 1013.8 hPa West 12.9 km/h 24.1 km/h 89 % 0 mm 0 W/m2
04:40 4.2 °C 2.5 °C 1013.8 hPa WNW 12.9 km/h 24.1 km/h 89 % 0 mm 0 W/m2
04:50 4.2 °C 2.7 °C 1013.8 hPa WNW 12.9 km/h 12.9 km/h 90 % 0 mm 0 W/m2
04:55 4.2 °C 2.7 °C 1013.8 hPa WNW 11.3 km/h 16.1 km/h 90 % 0 mm 0 W/m2
05:00 4.3 °C 2.8 °C 1014.1 hPa NW 11.3 km/h 24.1 km/h 90 % 0 mm 0 W/m2
05:05 4.3 °C 2.8 °C 1014.1 hPa NNW 11.3 km/h 24.1 km/h 90 % 0 mm 0 W/m2
05:10 4.3 °C 2.8 °C 1013.8 hPa West 11.3 km/h 24.1 km/h 90 % 0 mm 0 W/m2
05:15 4.2 °C 2.7 °C 1013.8 hPa West 11.3 km/h 24.1 km/h 90 % 0 mm 0 W/m2
05:25 4.2 °C 2.7 °C 1013.8 hPa West 12.9 km/h 24.1 km/h 90 % 0 mm 0 W/m2
05:30 4.1 °C 2.6 °C 1013.8 hPa WNW 12.9 km/h 12.9 km/h 90 % 0 mm 0 W/m2
05:35 4.1 °C 2.6 °C 1013.8 hPa WNW 9.7 km/h 24.1 km/h 90 % 0 mm 0 W/m2
05:40 3.9 °C 2.4 °C 1014.1 hPa WNW 8 km/h 8 km/h 90 % 0 mm 0 W/m2
05:45 3.8 °C 2.3 °C 1014.1 hPa West 4.8 km/h 24.1 km/h 90 % 0 mm 0 W/m2
05:55 3.6 °C 2.3 °C 1014.1 hPa WNW 3.2 km/h 8 km/h 91 % 0 mm 0 W/m2
06:00 3.6 °C 2.2 °C 1014.1 hPa NW 6.4 km/h 24.1 km/h 91 % 0 mm 0 W/m2
06:10 3.5 °C 2.3 °C 1014.1 hPa WNW 11.3 km/h 11.3 km/h 92 % 0 mm 0 W/m2
06:15 3.5 °C 2.3 °C 1014.1 hPa NW 11.3 km/h 12.9 km/h 92 % 0 mm 0 W/m2
06:20 3.6 °C 2.4 °C 1014.1 hPa NW 11.3 km/h 11.3 km/h 92 % 0 mm 0 W/m2
06:30 3.5 °C 2.2 °C 1014.1 hPa WNW 11.3 km/h 11.3 km/h 91 % 0 mm 0 W/m2
06:35 3.4 °C 2.1 °C 1014.1 hPa West 11.3 km/h 14.5 km/h 91 % 0 mm 0 W/m2
06:40 3.4 °C 2.1 °C 1014.1 hPa NW 12.9 km/h 24.1 km/h 91 % 0 mm 5 W/m2
06:45 3.4 °C 2.1 °C 1014.1 hPa WNW 12.9 km/h 24.1 km/h 91 % 0 mm 7 W/m2
06:50 3.4 °C 2.3 °C 1014.1 hPa WNW 12.9 km/h 24.1 km/h 92 % 0 mm 11 W/m2
06:55 3.4 °C 2.1 °C 1014.1 hPa NW 11.3 km/h 24.1 km/h 91 % 0 mm 12 W/m2
07:05 3.6 °C 2.2 °C 1014.1 hPa WNW 9.7 km/h 11.3 km/h 91 % 0 mm 39 W/m2
07:10 3.6 °C 2.3 °C 1014.1 hPa WNW 8 km/h 8 km/h 91 % 0 mm 53 W/m2
07:15 3.7 °C 2.4 °C 1014.1 hPa WNW 8 km/h 24.1 km/h 91 % 0 mm 72 W/m2
07:20 3.8 °C 2.5 °C 1014.4 hPa West 4.8 km/h 4.8 km/h 91 % 0 mm 86 W/m2
07:30 4.1 °C 2.8 °C 1014.4 hPa WNW 3.2 km/h 3.2 km/h 91 % 0 mm 105 W/m2
07:40 4.8 °C 3.3 °C 1014.4 hPa Calm   24.1 km/h 90 % 0 mm 116 W/m2
07:45 5.2 °C 3.3 °C 1014.4 hPa Calm   24.1 km/h 88 % 0 mm 130 W/m2
07:50 5.3 °C 3.2 °C 1014.4 hPa Calm   24.1 km/h 86 % 0 mm 155 W/m2
07:55 5.4 °C 3.2 °C 1014.4 hPa Calm   24.1 km/h 86 % 0 mm 172 W/m2
08:00 5.4 °C 3.1 °C 1014.8 hPa WNW 1.6 km/h 1.6 km/h 85 % 0 mm 179 W/m2
08:10 5.4 °C 2.9 °C 1014.8 hPa West 4.8 km/h 24.1 km/h 84 % 0 mm 142 W/m2
08:15 5.4 °C 2.9 °C 1014.8 hPa West 6.4 km/h 24.1 km/h 84 % 0 mm 223 W/m2
08:20 5.6 °C 3.1 °C 1014.8 hPa WSW 6.4 km/h 24.1 km/h 84 % 0 mm 207 W/m2
08:25 5.7 °C 3.2 °C 1014.8 hPa West 9.7 km/h 24.1 km/h 84 % 0 mm 239 W/m2
08:30 5.8 °C 3.3 °C 1014.8 hPa NW 11.3 km/h 11.3 km/h 84 % 0 mm 251 W/m2
08:35 5.9 °C 3.2 °C 1014.8 hPa West 12.9 km/h 12.9 km/h 83 % 0 mm 265 W/m2
08:40 6.1 °C 3.4 °C 1014.8 hPa West 12.9 km/h 12.9 km/h 83 % 0 mm 274 W/m2
08:45 6.1 °C 3.4 °C 1014.8 hPa West 12.9 km/h 24.1 km/h 83 % 0 mm 285 W/m2
08:50 6.2 °C 3.6 °C 1014.8 hPa WSW 12.9 km/h 24.1 km/h 83 % 0 mm 299 W/m2
09:00 6.4 °C 3.6 °C 1014.4 hPa West 12.9 km/h 24.1 km/h 82 % 0 mm 330 W/m2
09:05 6.7 °C 3.7 °C 1014.4 hPa West 14.5 km/h 24.1 km/h 81 % 0 mm 352 W/m2
09:10 6.9 °C 3.7 °C 1014.4 hPa West 16.1 km/h 16.1 km/h 80 % 0 mm 380 W/m2
09:20 7 °C 3.6 °C 1014.8 hPa West 14.5 km/h 14.5 km/h 79 % 0 mm 241 W/m2
09:25 6.9 °C 3.6 °C 1014.8 hPa SW 14.5 km/h 24.1 km/h 79 % 0 mm 250 W/m2
09:35 6.6 °C 3.2 °C 1014.8 hPa WNW 11.3 km/h 24.1 km/h 79 % 0 mm 127 W/m2
09:40 6.4 °C 3.1 °C 1014.8 hPa West 11.3 km/h 24.1 km/h 79 % 0 mm 274 W/m2
09:50 6.8 °C 3.6 °C 1014.8 hPa West 11.3 km/h 11.3 km/h 80 % 0 mm 362 W/m2
10:00 7.3 °C 3.9 °C 1015.1 hPa West 9.7 km/h 24.1 km/h 79 % 0 mm 388 W/m2
10:10 7.8 °C 3.8 °C 1015.5 hPa WNW 12.9 km/h 24.1 km/h 76 % 0 mm 404 W/m2
10:15 7.9 °C 3.9 °C 1015.5 hPa WNW 14.5 km/h 24.1 km/h 76 % 0 mm 471 W/m2
10:20 8.1 °C 4.1 °C 1015.5 hPa WNW 12.9 km/h 24.1 km/h 76 % 0 mm 497 W/m2
10:25 8.3 °C 4.1 °C 1015.8 hPa West 12.9 km/h 24.1 km/h 75 % 0 mm 352 W/m2
10:30 8.3 °C 3.9 °C 1015.8 hPa WNW 12.9 km/h 24.1 km/h 74 % 0 mm 253 W/m2
10:40 8.1 °C 3.4 °C 1015.8 hPa WNW 14.5 km/h 14.5 km/h 72 % 0 mm 297 W/m2
10:45 8.1 °C 3.6 °C 1015.5 hPa WNW 12.9 km/h 24.1 km/h 73 % 0 mm 492 W/m2
10:50 8.3 °C 3.7 °C 1015.5 hPa WNW 12.9 km/h 12.9 km/h 73 % 0 mm 478 W/m2
10:55 8.5 °C 3.7 °C 1015.5 hPa WNW 12.9 km/h 17.7 km/h 72 % 0 mm 487 W/m2
11:00 8.5 °C 3.7 °C 1015.5 hPa WSW 14.5 km/h 24.1 km/h 72 % 0 mm 475 W/m2
11:10 8.6 °C 3.4 °C 1015.5 hPa West 16.1 km/h 16.1 km/h 70 % 0 mm 338 W/m2
11:15 8.6 °C 3.4 °C 1015.5 hPa WNW 16.1 km/h 24.1 km/h 70 % 0 mm 334 W/m2
11:20 8.5 °C 3.1 °C 1015.8 hPa West 12.9 km/h 24.1 km/h 69 % 0 mm 262 W/m2
11:25 8.6 °C 3.4 °C 1015.8 hPa WNW 12.9 km/h 24.1 km/h 70 % 0 mm 459 W/m2
11:30 8.7 °C 3.3 °C 1015.5 hPa WNW 14.5 km/h 24.1 km/h 69 % 0 mm 276 W/m2
11:35 8.8 °C 3.4 °C 1015.5 hPa WNW 11.3 km/h 24.1 km/h 69 % 0 mm 526 W/m2
11:40 9 °C 3.4 °C 1015.5 hPa West 8 km/h 24.1 km/h 68 % 0 mm 248 W/m2
11:50 9.1 °C 3.4 °C 1015.5 hPa WNW 9.7 km/h 9.7 km/h 68 % 0 mm 313 W/m2
11:55 9.2 °C 3.3 °C 1015.1 hPa West 8 km/h 12.9 km/h 67 % 0 mm 462 W/m2
12:00 9.2 °C 3 °C 1015.5 hPa NW 8 km/h 24.1 km/h 65 % 0 mm 480 W/m2
12:05 9.3 °C 3.3 °C 1015.5 hPa West 9.7 km/h 24.1 km/h 66 % 0 mm 538 W/m2
12:15 9.6 °C 3.3 °C 1015.5 hPa NW 9.7 km/h 24.1 km/h 65 % 0 mm 555 W/m2
12:20 9.8 °C 3.6 °C 1015.5 hPa WSW 6.4 km/h 24.1 km/h 65 % 0 mm 485 W/m2
12:30 9.4 °C 3.6 °C 1015.5 hPa SW 9.7 km/h 9.7 km/h 67 % 0 mm 432 W/m2
12:35 9.5 °C 3.7 °C 1015.5 hPa WSW 8 km/h 24.1 km/h 67 % 0 mm 522 W/m2
12:40 9.6 °C 3.7 °C 1015.8 hPa WSW 8 km/h 24.1 km/h 67 % 0 mm 635 W/m2
12:45 9.7 °C 3.9 °C 1015.8 hPa WSW 9.7 km/h 24.1 km/h 67 % 0 mm 596 W/m2
12:55 10 °C 3.7 °C 1015.5 hPa West 11.3 km/h 24.1 km/h 65 % 0 mm 629 W/m2
13:00 10.2 °C 3.9 °C 1015.5 hPa WSW 11.3 km/h 24.1 km/h 65 % 0 mm 446 W/m2
13:05 10.1 °C 3.4 °C 1015.5 hPa West 11.3 km/h 24.1 km/h 63 % 0 mm 424 W/m2
13:10 10.2 °C 3.5 °C 1015.1 hPa WSW 9.7 km/h 9.7 km/h 63 % 0 mm 457 W/m2
13:15 10.3 °C 3.3 °C 1015.1 hPa WNW 8 km/h 12.9 km/h 62 % 0 mm 369 W/m2
13:20 10.5 °C 3.3 °C 1015.5 hPa WNW 9.7 km/h 9.7 km/h 61 % 0 mm 350 W/m2
13:30 10.7 °C 3.2 °C 1015.1 hPa West 6.4 km/h 24.1 km/h 60 % 0 mm 457 W/m2
13:35 10.7 °C 3 °C 1015.1 hPa West 8 km/h 24.1 km/h 59 % 0 mm 332 W/m2
13:40 10.7 °C 3.5 °C 1015.1 hPa West 9.7 km/h 24.1 km/h 61 % 0 mm 536 W/m2
13:45 10.9 °C 3.7 °C 1015.1 hPa NW 8 km/h 24.1 km/h 61 % 0 mm 670 W/m2
13:55 11.1 °C 3.1 °C 1014.8 hPa West 6.4 km/h 24.1 km/h 58 % 0 mm 279 W/m2
14:00 10.9 °C 2.9 °C 1014.8 hPa West 6.4 km/h 6.4 km/h 58 % 0 mm 262 W/m2
14:10 10.8 °C 3.1 °C 1014.8 hPa WNW 3.2 km/h 24.1 km/h 59 % 0 mm 294 W/m2
14:15 10.8 °C 3.1 °C 1014.8 hPa WSW 3.2 km/h 24.1 km/h 59 % 0 mm 246 W/m2
14:20 10.8 °C 3.3 °C 1014.4 hPa SSW 4.8 km/h 4.8 km/h 60 % 0 mm 459 W/m2
14:25 10.8 °C 2.8 °C 1014.4 hPa South 6.4 km/h 8 km/h 58 % 0 mm 311 W/m2
14:35 10.7 °C 2.8 °C 1014.1 hPa SSW 6.4 km/h 24.1 km/h 58 % 0 mm 232 W/m2
14:40 10.8 °C 2.9 °C 1014.1 hPa SSW 4.8 km/h 24.1 km/h 58 % 0 mm 406 W/m2
14:45 10.7 °C 2.6 °C 1014.1 hPa South 6.4 km/h 24.1 km/h 57 % 0 mm 171 W/m2
14:50 10.5 °C 2.8 °C 1014.1 hPa SW 8 km/h 24.1 km/h 59 % 0 mm 179 W/m2
14:55 10.3 °C 2.6 °C 1014.1 hPa SW 8 km/h 24.1 km/h 59 % 0 mm 192 W/m2
15:00 10.1 °C 2.2 °C 1013.8 hPa SSW 9.7 km/h 9.7 km/h 58 % 0 mm 225 W/m2
15:10 10.2 °C 1.3 °C 1013.8 hPa SW 8 km/h 8 km/h 54 % 0 mm 192 W/m2
15:15 10.2 °C 1.3 °C 1013.8 hPa WSW 8 km/h 24.1 km/h 54 % 0 mm 216 W/m2
15:20 10.2 °C 1.6 °C 1013.8 hPa WSW 4.8 km/h 4.8 km/h 55 % 0 mm 172 W/m2
15:25 10.2 °C 1.6 °C 1013.8 hPa SW 4.8 km/h 8 km/h 55 % 0 mm 149 W/m2
15:35 9.9 °C 2.1 °C 1013.8 hPa SW 9.7 km/h 24.1 km/h 58 % 0 mm 255 W/m2
15:40 10 °C 2.1 °C 1013.8 hPa SSW 8 km/h 8 km/h 58 % 0 mm 295 W/m2
15:50 9.9 °C 2.2 °C 1013.4 hPa SW 6.4 km/h 6.4 km/h 59 % 0 mm 83 W/m2
15:55 9.8 °C 2.4 °C 1013.8 hPa SW 4.8 km/h 24.1 km/h 60 % 0 mm 62 W/m2
16:00 9.7 °C 2.5 °C 1013.8 hPa SW 4.8 km/h 24.1 km/h 61 % 0 mm 118 W/m2
16:05 9.6 °C 2.7 °C 1013.8 hPa SW 3.2 km/h 24.1 km/h 62 % 0 mm 107 W/m2
16:15 9.6 °C 2.8 °C 1013.8 hPa SW 4.8 km/h 24.1 km/h 63 % 0 mm 104 W/m2
16:20 9.6 °C 3.1 °C 1013.8 hPa SSW 4.8 km/h 4.8 km/h 64 % 0 mm 107 W/m2
16:25 9.6 °C 2.4 °C 1013.8 hPa SSW 6.4 km/h 8 km/h 61 % 0 mm 83 W/m2
16:30 9.5 °C 2.3 °C 1013.8 hPa West 6.4 km/h 6.4 km/h 61 % 0 mm 70 W/m2
16:35 9.5 °C 2.6 °C 1014.1 hPa SSW 6.4 km/h 9.7 km/h 62 % 0 mm 54 W/m2
16:40 9.4 °C 2.2 °C 1014.1 hPa SW 8 km/h 24.1 km/h 61 % 0 mm 40 W/m2
16:50 9.3 °C 2.8 °C 1013.8 hPa SSW 4.8 km/h 24.1 km/h 64 % 0 mm 69 W/m2
16:55 9.2 °C 2.8 °C 1013.8 hPa SW 6.4 km/h 24.1 km/h 64 % 0 mm 56 W/m2
17:00 9.1 °C 2.7 °C 1013.8 hPa South 8 km/h 24.1 km/h 64 % 0 mm 35 W/m2
17:10 8.9 °C 2.3 °C 1013.8 hPa SW 8 km/h 24.1 km/h 63 % 0 mm 39 W/m2
17:15 8.9 °C 2.2 °C 1013.4 hPa SSW 9.7 km/h 24.1 km/h 63 % 0 mm 40 W/m2
17:25 8.8 °C 2.3 °C 1013.8 hPa SSW 9.7 km/h 24.1 km/h 64 % 0 mm 19 W/m2
17:30 8.7 °C 2.3 °C 1014.1 hPa SW 9.7 km/h 24.1 km/h 64 % 0 mm 14 W/m2
17:35 8.6 °C 2.2 °C 1014.1 hPa South 9.7 km/h 24.1 km/h 64 % 0 mm 11 W/m2
17:40 8.6 °C 2.4 °C 1014.1 hPa SW 9.7 km/h 9.7 km/h 65 % 0 mm 9 W/m2
17:45 8.6 °C 2.3 °C 1014.1 hPa SW 8 km/h 24.1 km/h 65 % 0 mm 9 W/m2
17:55 8.5 °C 2.3 °C 1013.8 hPa SSW 4.8 km/h 24.1 km/h 65 % 0 mm 0 W/m2
18:00 8.5 °C 2.3 °C 1013.8 hPa SSW 4.8 km/h 4.8 km/h 65 % 0 mm 0 W/m2
18:05 8.4 °C 2.2 °C 1013.4 hPa SSW 3.2 km/h 24.1 km/h 65 % 0 mm 0 W/m2
18:10 8.4 °C 2.2 °C 1013.8 hPa SSW 3.2 km/h 3.2 km/h 65 % 0 mm 0 W/m2
18:15 8.4 °C 2.2 °C 1013.8 hPa South 3.2 km/h 9.7 km/h 65 % 0 mm 0 W/m2
18:20 8.4 °C 2.2 °C 1013.4 hPa South 3.2 km/h 24.1 km/h 65 % 0 mm 0 W/m2
18:30 8.4 °C 2.2 °C 1013.4 hPa SSW 6.4 km/h 24.1 km/h 65 % 0 mm 0 W/m2
18:35 8.4 °C 2.2 °C 1013.4 hPa South 6.4 km/h 24.1 km/h 65 % 0 mm 0 W/m2
18:40 8.3 °C 2.3 °C 1013.4 hPa SSW 6.4 km/h 24.1 km/h 66 % 0 mm 0 W/m2
18:50 8.3 °C 2.3 °C 1013.1 hPa South 8 km/h 24.1 km/h 66 % 0 mm 0 W/m2
18:55 8.3 °C 2.3 °C 1013.1 hPa SSW 8 km/h 24.1 km/h 66 % 0 mm 0 W/m2
19:05 8.3 °C 2.3 °C 1013.1 hPa South 8 km/h 24.1 km/h 66 % 0 mm 0 W/m2
19:10 8.3 °C 2.3 °C 1013.1 hPa SSW 9.7 km/h 9.7 km/h 66 % 0 mm 0 W/m2
19:15 8.3 °C 2.5 °C 1013.1 hPa SSW 6.4 km/h 24.1 km/h 67 % 0 mm 0 W/m2
19:20 8.3 °C 2.5 °C 1012.8 hPa SSE 6.4 km/h 6.4 km/h 67 % 0 mm 0 W/m2
19:25 8.2 °C 2.4 °C 1012.8 hPa SSW 8 km/h 11.3 km/h 67 % 0 mm 0 W/m2
19:35 8.2 °C 2.4 °C 1012.4 hPa SSE 9.7 km/h 11.3 km/h 67 % 0 mm 0 W/m2
19:40 8.2 °C 2.4 °C 1012.8 hPa South 8 km/h 8 km/h 67 % 0 mm 0 W/m2
19:45 8.2 °C 2.4 °C 1012.8 hPa SSW 8 km/h 24.1 km/h 67 % 0 mm 0 W/m2
19:50 8.2 °C 2.2 °C 1012.8 hPa SSW 8 km/h 8 km/h 66 % 0 mm 0 W/m2
19:55 8.2 °C 2.2 °C 1012.8 hPa SSW 9.7 km/h 16.1 km/h 66 % 0 mm 0 W/m2
20:00 8.2 °C 1.8 °C 1012.8 hPa SW 12.9 km/h 12.9 km/h 64 % 0 mm 0 W/m2
20:10 8.2 °C 1.8 °C 1012.8 hPa South 12.9 km/h 24.1 km/h 64 % 0 mm 0 W/m2
20:20 8.2 °C 2 °C 1012.8 hPa SW 9.7 km/h 24.1 km/h 65 % 0 mm 0 W/m2
20:25 8.2 °C 1.8 °C 1012.8 hPa SSW 11.3 km/h 24.1 km/h 64 % 0 mm 0 W/m2
20:30 8.2 °C 1.8 °C 1012.8 hPa South 11.3 km/h 11.3 km/h 64 % 0 mm 0 W/m2
20:35 8.2 °C 2 °C 1012.4 hPa South 9.7 km/h 19.3 km/h 65 % 0 mm 0 W/m2
20:45 8.2 °C 2.2 °C 1011.7 hPa SSE 11.3 km/h 24.1 km/h 66 % 0 mm 0 W/m2
20:50 8.1 °C 2.1 °C 1011.7 hPa South 9.7 km/h 9.7 km/h 66 % 0 mm 0 W/m2
20:55 8.1 °C 2.1 °C 1011.7 hPa SSW 9.7 km/h 12.9 km/h 66 % 0 mm 0 W/m2
21:00 8.1 °C 2.3 °C 1011.7 hPa SSW 9.7 km/h 9.7 km/h 67 % 0 mm 0 W/m2
21:05 8 °C 2.2 °C 1011.4 hPa South 9.7 km/h 14.5 km/h 67 % 0 mm 0 W/m2
21:15 7.9 °C 2.2 °C 1011.4 hPa SSE 12.9 km/h 12.9 km/h 67 % 0 mm 0 W/m2
21:20 7.9 °C 2.4 °C 1011.1 hPa South 11.3 km/h 24.1 km/h 68 % 0 mm 0 W/m2
21:25 7.9 °C 2.6 °C 1011.1 hPa SSW 12.9 km/h 25.7 km/h 69 % 0 mm 0 W/m2
21:30 7.9 °C 2.8 °C 1011.1 hPa SSW 16.1 km/h 24.1 km/h 70 % 0 mm 0 W/m2
21:35 7.9 °C 2.8 °C 1010.7 hPa SSW 19.3 km/h 24.1 km/h 70 % 0 mm 0 W/m2
21:45 7.9 °C 3.2 °C 1010.7 hPa SSW 19.3 km/h 24.1 km/h 72 % 0 mm 0 W/m2
21:55 7.9 °C 3.6 °C 1010.4 hPa South 19.3 km/h 24.1 km/h 74 % 0 mm 0 W/m2
22:00 7.9 °C 3.7 °C 1010.4 hPa South 22.5 km/h 29 km/h 75 % 0 mm 0 W/m2
22:05 7.8 °C 3.9 °C 1010.4 hPa SSE 20.9 km/h 29 km/h 76 % 0 mm 0 W/m2
22:10 7.8 °C 3.9 °C 1010.4 hPa SSW 17.7 km/h 17.7 km/h 76 % 0 mm 0 W/m2
22:15 7.8 °C 3.9 °C 1010.4 hPa SSE 16.1 km/h 24.1 km/h 76 % 0 mm 0 W/m2
22:25 7.8 °C 4 °C 1010.4 hPa SSE 14.5 km/h 24.1 km/h 77 % 0 mm 0 W/m2
22:30 7.8 °C 4 °C 1010 hPa SSE 12.9 km/h 24.1 km/h 77 % 0 mm 0 W/m2
22:35 7.8 °C 4 °C 1010 hPa SSE 11.3 km/h 24.1 km/h 77 % 0 mm 0 W/m2
22:40 7.8 °C 4.2 °C 1010 hPa SSW 9.7 km/h 9.7 km/h 78 % 0 mm 0 W/m2
22:45 7.8 °C 4.4 °C 1009.7 hPa South 6.4 km/h 24.1 km/h 79 % 0 mm 0 W/m2
22:55 7.7 °C 4.6 °C 1009.4 hPa South 9.7 km/h 12.9 km/h 81 % 0 mm 0 W/m2
23:00 7.6 °C 4.7 °C 1009.4 hPa SSW 11.3 km/h 24.1 km/h 82 % 0 mm 0 W/m2
23:05 7.6 °C 4.7 °C 1009.4 hPa SW 14.5 km/h 24.1 km/h 82 % 0 mm 0 W/m2
23:15 7.6 °C 4.8 °C 1009.4 hPa South 14.5 km/h 24.1 km/h 83 % 0 mm 0 W/m2
23:20 7.6 °C 5 °C 1009.4 hPa South 12.9 km/h 12.9 km/h 84 % 0 mm 0 W/m2
23:30 7.4 °C 5.1 °C 1008.7 hPa South 12.9 km/h 24.1 km/h 85 % 0 mm 0 W/m2
23:35 7.4 °C 5.2 °C 1008.7 hPa SSE 14.5 km/h 24.1 km/h 86 % 0 mm 0 W/m2
23:40 7.3 °C 5.5 °C 1008.7 hPa South 14.5 km/h 14.5 km/h 88 % 0 mm 0 W/m2
23:45 7.3 °C 5.4 °C 1008.7 hPa South 14.5 km/h 17.7 km/h 88 % 0 mm 0 W/m2
23:50 7.3 °C 5.6 °C 1008.4 hPa SSW 16.1 km/h 16.1 km/h 89 % 0 mm 0 W/m2
23:55 7.3 °C 5.6 °C 1008 hPa South 17.7 km/h 17.7 km/h 89 % 0 mm 0 W/m2
Delerius-Weather
Compliments of Weather Underground - 2 mb

Data updates at regular intervals.